createdAt,value
2022-08-28T00:01:24.622Z,17.41
2022-08-28T00:03:51.124Z,17.36
2022-08-28T00:06:17.751Z,17.28
2022-08-28T00:08:44.504Z,17.26
2022-08-28T00:11:11.045Z,17.20
2022-08-28T00:13:43.957Z,17.16
2022-08-28T00:16:11.721Z,17.16
2022-08-28T00:18:40.197Z,17.17
2022-08-28T00:21:08.068Z,17.22
2022-08-28T00:23:42.502Z,17.27
2022-08-28T00:26:09.863Z,17.30
2022-08-28T00:28:38.058Z,17.33
2022-08-28T00:31:04.750Z,17.38
2022-08-28T00:33:33.766Z,17.42
2022-08-28T00:36:01.819Z,17.44
2022-08-28T00:38:30.774Z,17.51
2022-08-28T00:41:01.751Z,17.55
2022-08-28T00:43:37.862Z,17.58
2022-08-28T00:46:11.990Z,17.59
2022-08-28T00:48:39.515Z,17.60
2022-08-28T00:51:07.186Z,17.62
2022-08-28T00:53:33.819Z,17.67
2022-08-28T00:56:09.466Z,17.71
2022-08-28T00:58:42.325Z,17.71
2022-08-28T01:01:09.351Z,17.73
2022-08-28T01:03:36.561Z,17.78
2022-08-28T01:06:03.766Z,17.75
2022-08-28T01:08:30.812Z,17.80
2022-08-28T01:11:01.051Z,17.79
2022-08-28T01:13:27.792Z,17.77
2022-08-28T01:15:56.040Z,17.73
2022-08-28T01:18:23.396Z,17.74
2022-08-28T01:21:27.563Z,17.71
2022-08-28T01:24:04.858Z,17.73
2022-08-28T01:26:31.682Z,17.68
2022-08-28T01:28:59.446Z,17.68
2022-08-28T01:31:27.990Z,17.69
2022-08-28T01:33:56.115Z,17.68
2022-08-28T01:36:22.569Z,17.70
2022-08-28T01:38:56.136Z,17.72
2022-08-28T01:41:22.730Z,17.74
2022-08-28T01:43:49.245Z,17.75
2022-08-28T01:46:15.668Z,17.74
2022-08-28T01:48:44.476Z,17.74
2022-08-28T01:51:12.345Z,17.74
2022-08-28T01:53:39.877Z,17.74
2022-08-28T01:56:11.282Z,17.73
2022-08-28T01:58:38.623Z,17.72
2022-08-28T02:01:13.499Z,17.71
2022-08-28T02:03:42.970Z,17.73
2022-08-28T02:06:10.291Z,17.74
2022-08-28T02:08:37.152Z,17.73
2022-08-28T02:11:07.619Z,17.75
2022-08-28T02:13:36.536Z,17.76
2022-08-28T02:16:07.052Z,17.77
2022-08-28T02:18:33.574Z,17.76
2022-08-28T02:21:00.180Z,17.75
2022-08-28T02:23:27.216Z,17.71
2022-08-28T02:25:53.923Z,17.72
2022-08-28T02:28:20.391Z,17.73
2022-08-28T02:30:46.930Z,17.75
2022-08-28T02:33:13.331Z,17.77
2022-08-28T02:35:39.968Z,17.76
2022-08-28T02:38:06.472Z,17.71
2022-08-28T02:40:32.919Z,17.72
2022-08-28T02:42:59.735Z,17.72
2022-08-28T02:45:31.365Z,17.70
2022-08-28T02:47:57.851Z,17.66
2022-08-28T02:50:24.538Z,17.69
2022-08-28T02:52:51.935Z,17.68
2022-08-28T02:55:19.605Z,17.69
2022-08-28T02:57:48.734Z,17.72
2022-08-28T03:00:21.094Z,17.73
2022-08-28T03:02:48.750Z,17.73
2022-08-28T03:05:17.676Z,17.76
2022-08-28T03:07:45.080Z,17.73
2022-08-28T03:10:11.778Z,17.73
2022-08-28T03:12:38.837Z,17.75
2022-08-28T03:15:06.455Z,17.75
2022-08-28T03:17:33.206Z,17.72
2022-08-28T03:19:59.635Z,17.74
2022-08-28T03:22:26.272Z,17.76
2022-08-28T03:24:52.762Z,17.74
2022-08-28T03:27:19.270Z,17.68
2022-08-28T03:29:45.609Z,17.65
2022-08-28T03:32:12.131Z,17.66
2022-08-28T03:34:38.598Z,17.64
2022-08-28T03:37:04.965Z,17.64
2022-08-28T03:39:31.674Z,17.60
2022-08-28T03:41:58.354Z,17.57
2022-08-28T03:44:24.831Z,17.54
2022-08-28T03:46:51.346Z,17.53
2022-08-28T03:49:18.126Z,17.53
2022-08-28T03:51:46.094Z,17.52
2022-08-28T03:54:13.032Z,17.49
2022-08-28T03:56:43.369Z,17.50
2022-08-28T03:59:10.465Z,17.47
2022-08-28T04:01:36.964Z,17.49
2022-08-28T04:04:04.002Z,17.50
2022-08-28T04:06:30.697Z,17.55
2022-08-28T04:09:00.092Z,17.57
2022-08-28T04:11:27.334Z,17.57
2022-08-28T04:13:53.801Z,17.54
2022-08-28T04:16:21.690Z,17.61
2022-08-28T04:18:49.542Z,17.65
2022-08-28T04:21:19.432Z,17.65
2022-08-28T04:23:47.370Z,17.67
2022-08-28T04:26:17.121Z,17.70
2022-08-28T04:28:43.688Z,17.73
2022-08-28T04:31:10.590Z,17.78
2022-08-28T04:33:38.158Z,17.80
2022-08-28T04:36:10.387Z,17.80
2022-08-28T04:38:43.548Z,17.81
2022-08-28T04:41:13.497Z,17.81
2022-08-28T04:43:40.311Z,17.84
2022-08-28T04:46:10.973Z,17.86
2022-08-28T04:48:39.912Z,17.86
2022-08-28T04:51:09.200Z,17.88
2022-08-28T04:53:38.057Z,17.90
2022-08-28T04:56:07.385Z,17.87
2022-08-28T04:58:34.260Z,17.84
2022-08-28T05:01:06.954Z,17.88
2022-08-28T05:03:33.617Z,17.93
2022-08-28T05:06:00.269Z,17.92
2022-08-28T05:08:26.824Z,18.00
2022-08-28T05:10:54.872Z,17.98
2022-08-28T05:13:22.309Z,18.09
2022-08-28T05:15:50.951Z,18.08
2022-08-28T05:18:19.752Z,18.13
2022-08-28T05:20:47.975Z,18.13
2022-08-28T05:23:16.733Z,18.17
2022-08-28T05:25:47.925Z,18.19
2022-08-28T05:28:16.460Z,18.27
2022-08-28T05:30:44.050Z,18.34
2022-08-28T05:33:13.489Z,18.35
2022-08-28T05:35:44.642Z,18.37
2022-08-28T05:38:13.377Z,18.32
2022-08-28T05:40:44.432Z,18.40
2022-08-28T05:43:12.667Z,18.39
2022-08-28T05:45:41.389Z,18.50
2022-08-28T05:48:11.449Z,18.61
2022-08-28T05:50:39.086Z,18.73
2022-08-28T05:53:09.451Z,18.80
2022-08-28T05:55:40.104Z,18.82
2022-08-28T05:58:06.640Z,18.96
2022-08-28T06:00:33.006Z,19.09
2022-08-28T06:02:59.508Z,19.27
2022-08-28T06:05:25.871Z,19.25
2022-08-28T06:07:54.679Z,19.08
2022-08-28T06:10:21.054Z,19.25
2022-08-28T06:12:47.701Z,19.23
2022-08-28T06:15:14.154Z,19.44
2022-08-28T06:17:40.947Z,19.58
2022-08-28T06:20:08.037Z,20.06
2022-08-28T06:22:34.542Z,20.29
2022-08-28T06:25:01.018Z,20.46
2022-08-28T06:27:30.413Z,20.28
2022-08-28T06:29:56.917Z,19.70
2022-08-28T06:32:23.379Z,19.92
2022-08-28T06:34:49.897Z,20.03
2022-08-28T06:37:16.824Z,19.94
2022-08-28T06:39:43.407Z,19.86
2022-08-28T06:42:09.784Z,19.55
2022-08-28T06:44:36.854Z,19.23
2022-08-28T06:47:03.435Z,19.55
2022-08-28T06:49:29.942Z,19.45
2022-08-28T06:51:56.536Z,19.42
2022-08-28T06:54:23.745Z,19.64
2022-08-28T06:56:51.264Z,19.71
2022-08-28T06:59:17.955Z,19.70
2022-08-28T07:01:44.427Z,19.57
2022-08-28T07:04:13.217Z,19.47
2022-08-28T07:06:42.129Z,19.40
2022-08-28T07:09:10.269Z,19.68
2022-08-28T07:11:37.296Z,19.98
2022-08-28T07:14:04.151Z,19.66
2022-08-28T07:16:39.021Z,19.70
2022-08-28T07:19:10.726Z,19.85
2022-08-28T07:21:39.859Z,19.76
2022-08-28T07:24:08.471Z,19.60
2022-08-28T07:26:35.851Z,19.69
2022-08-28T07:29:09.357Z,19.66
2022-08-28T07:31:36.515Z,19.75
2022-08-28T07:34:04.075Z,19.84
2022-08-28T07:36:30.518Z,19.97
2022-08-28T07:38:59.674Z,20.14
2022-08-28T07:41:28.719Z,19.98
2022-08-28T07:43:56.304Z,20.28
2022-08-28T07:46:22.757Z,20.67
2022-08-28T07:48:49.252Z,20.33
2022-08-28T07:51:15.879Z,20.27
2022-08-28T07:53:42.362Z,20.77
2022-08-28T07:56:09.438Z,20.64
2022-08-28T07:58:37.432Z,20.77
2022-08-28T08:01:04.116Z,20.91
2022-08-28T08:03:31.788Z,21.23
2022-08-28T08:06:04.072Z,21.14
2022-08-28T08:08:32.191Z,21.33
2022-08-28T08:11:01.702Z,21.04
2022-08-28T08:13:30.233Z,20.97
2022-08-28T08:16:28.260Z,21.22
2022-08-28T08:18:54.895Z,21.55
2022-08-28T08:21:21.891Z,21.16
2022-08-28T08:23:48.673Z,21.52
2022-08-28T08:26:25.891Z,21.42
2022-08-28T08:28:52.506Z,21.10
2022-08-28T08:31:25.115Z,21.73
2022-08-28T08:33:55.795Z,21.87
2022-08-28T08:36:24.163Z,21.85
2022-08-28T08:38:59.142Z,22.04
2022-08-28T08:41:34.766Z,22.47
2022-08-28T08:44:09.696Z,22.02
2022-08-28T08:47:05.538Z,22.39
2022-08-28T08:49:48.370Z,22.16
2022-08-28T08:52:29.971Z,21.60
2022-08-28T08:55:28.668Z,21.32
2022-08-28T08:58:23.994Z,21.31
2022-08-28T09:01:09.000Z,21.70
2022-08-28T09:03:50.268Z,22.62
2022-08-28T09:06:45.121Z,22.47
2022-08-28T09:09:34.729Z,22.38
2022-08-28T09:12:05.570Z,23.01
2022-08-28T09:14:59.215Z,23.13
2022-08-28T09:17:31.319Z,22.48
2022-08-28T09:19:58.093Z,23.04
2022-08-28T09:22:24.486Z,22.98
2022-08-28T09:24:52.524Z,22.56
2022-08-28T09:27:30.769Z,22.40
2022-08-28T09:30:07.312Z,21.60
2022-08-28T09:32:38.743Z,21.63
2022-08-28T09:35:07.815Z,21.64
2022-08-28T09:37:36.488Z,21.99
2022-08-28T09:40:30.535Z,21.93
2022-08-28T09:43:02.361Z,21.59
2022-08-28T09:45:30.616Z,21.81
2022-08-28T09:47:58.456Z,21.46
2022-08-28T09:50:31.396Z,21.86
2022-08-28T09:53:13.618Z,22.03
2022-08-28T09:56:12.625Z,22.19
2022-08-28T09:58:55.483Z,22.07
2022-08-28T10:01:44.825Z,22.35
2022-08-28T10:04:14.749Z,22.54
2022-08-28T10:06:44.853Z,22.37
2022-08-28T10:09:26.805Z,22.20
2022-08-28T10:11:59.152Z,21.98
2022-08-28T10:14:39.504Z,21.90
2022-08-28T10:17:16.670Z,22.16
2022-08-28T10:20:06.466Z,21.82
2022-08-28T10:22:53.426Z,22.54
2022-08-28T10:25:44.358Z,22.28
2022-08-28T10:28:42.831Z,22.48
2022-08-28T10:31:31.545Z,22.14
2022-08-28T10:34:07.749Z,22.68
2022-08-28T10:36:36.650Z,22.58
2022-08-28T10:39:21.194Z,22.43
2022-08-28T10:41:58.211Z,22.14
2022-08-28T10:44:36.974Z,22.57
2022-08-28T10:47:05.603Z,22.95
2022-08-28T10:49:37.161Z,23.27
2022-08-28T10:52:09.223Z,23.54
2022-08-28T10:54:54.723Z,23.05
2022-08-28T10:57:37.284Z,23.82
2022-08-28T11:00:16.672Z,23.64
2022-08-28T11:02:51.403Z,24.21
2022-08-28T11:05:24.230Z,23.74
2022-08-28T11:07:58.534Z,24.21
2022-08-28T11:10:50.038Z,24.28
2022-08-28T11:13:55.709Z,24.50
2022-08-28T11:16:24.512Z,24.23
2022-08-28T11:19:14.458Z,24.66
2022-08-28T11:22:03.558Z,24.29
2022-08-28T11:24:39.031Z,23.90
2022-08-28T11:27:31.547Z,24.39
2022-08-28T11:30:03.372Z,24.38
2022-08-28T11:32:51.469Z,24.68
2022-08-28T11:35:20.868Z,25.32
2022-08-28T11:37:52.436Z,25.30
2022-08-28T11:40:28.020Z,24.53
2022-08-28T11:43:13.021Z,24.12
2022-08-28T11:45:46.635Z,23.38
2022-08-28T11:48:22.896Z,23.44
2022-08-28T11:50:54.480Z,23.23
2022-08-28T11:53:29.671Z,23.31
2022-08-28T11:56:31.046Z,24.19
2022-08-28T11:59:37.201Z,24.99
2022-08-28T12:02:41.178Z,24.81
2022-08-28T12:05:16.207Z,24.68
2022-08-28T12:07:48.472Z,24.85
2022-08-28T12:10:24.080Z,25.02
2022-08-28T12:12:57.678Z,25.38
2022-08-28T12:15:30.119Z,25.72
2022-08-28T12:18:03.938Z,25.67
2022-08-28T12:20:39.459Z,24.94
2022-08-28T12:23:37.091Z,25.71
2022-08-28T12:26:27.065Z,25.69
2022-08-28T12:29:01.136Z,25.79
2022-08-28T12:31:56.774Z,26.38
2022-08-28T12:34:34.553Z,26.03
2022-08-28T12:37:02.850Z,26.19
2022-08-28T12:39:32.058Z,26.93
2022-08-28T12:41:59.383Z,26.48
2022-08-28T12:44:29.556Z,26.52
2022-08-28T12:46:56.261Z,25.99
2022-08-28T12:49:37.418Z,25.14
2022-08-28T12:52:25.963Z,24.61
2022-08-28T12:54:54.873Z,24.40
2022-08-28T12:57:24.178Z,24.28
2022-08-28T12:59:53.570Z,24.50
2022-08-28T13:02:33.952Z,24.32
2022-08-28T13:05:07.408Z,24.48
2022-08-28T13:07:46.869Z,24.33
2022-08-28T13:10:42.536Z,24.71
2022-08-28T13:13:18.954Z,24.85
2022-08-28T13:15:51.683Z,25.29
2022-08-28T13:18:39.907Z,25.81
2022-08-28T13:21:32.522Z,25.90
2022-08-28T13:24:21.288Z,26.20
2022-08-28T13:26:50.337Z,26.42
2022-08-28T13:29:19.893Z,25.93
2022-08-28T13:31:56.642Z,25.73
2022-08-28T13:34:25.970Z,25.49
2022-08-28T13:36:56.425Z,25.35
2022-08-28T13:39:22.812Z,25.14
2022-08-28T13:41:54.335Z,24.82
2022-08-28T13:44:33.023Z,24.79
2022-08-28T13:47:01.983Z,24.74
2022-08-28T13:49:28.656Z,24.66
2022-08-28T13:51:57.979Z,25.22
2022-08-28T13:54:27.155Z,25.53
2022-08-28T13:56:54.766Z,25.59
2022-08-28T13:59:21.489Z,26.06
2022-08-28T14:01:50.611Z,26.10
2022-08-28T14:04:17.222Z,25.80
2022-08-28T14:06:44.550Z,26.09
2022-08-28T14:09:11.953Z,25.83
2022-08-28T14:11:38.725Z,24.97
2022-08-28T14:14:05.474Z,24.85
2022-08-28T14:16:35.452Z,24.77
2022-08-28T14:19:06.212Z,24.84
2022-08-28T14:21:34.370Z,25.11
2022-08-28T14:24:01.132Z,25.50
2022-08-28T14:26:28.546Z,25.15
2022-08-28T14:28:55.284Z,25.20
2022-08-28T14:31:22.032Z,24.92
2022-08-28T14:33:53.189Z,24.67
2022-08-28T14:36:26.723Z,24.84
2022-08-28T14:38:55.975Z,25.05
2022-08-28T14:41:23.927Z,25.30
2022-08-28T14:43:51.472Z,25.25
2022-08-28T14:46:37.628Z,25.40
2022-08-28T14:49:08.470Z,25.25
2022-08-28T14:51:37.644Z,25.62
2022-08-28T14:54:06.798Z,25.65
2022-08-28T14:56:34.332Z,25.53
2022-08-28T14:59:04.666Z,25.62
2022-08-28T15:01:39.542Z,25.39
2022-08-28T15:04:10.931Z,25.39
2022-08-28T15:06:37.576Z,25.43
2022-08-28T15:09:04.165Z,25.40
2022-08-28T15:11:31.003Z,25.45
2022-08-28T15:13:57.864Z,25.58
2022-08-28T15:16:37.241Z,25.59
2022-08-28T15:19:05.083Z,25.47
2022-08-28T15:21:33.069Z,25.23
2022-08-28T15:24:01.842Z,25.22
2022-08-28T15:26:34.579Z,25.43
2022-08-28T15:29:01.136Z,25.25
2022-08-28T15:31:32.634Z,24.96
2022-08-28T15:34:03.936Z,25.10
2022-08-28T15:36:33.840Z,24.78
2022-08-28T15:39:03.733Z,24.86
2022-08-28T15:41:30.763Z,24.65
2022-08-28T15:44:00.311Z,24.59
2022-08-28T15:46:28.262Z,24.68
2022-08-28T15:48:55.610Z,24.67
2022-08-28T15:51:26.096Z,24.60
2022-08-28T15:53:54.726Z,24.83
2022-08-28T15:56:21.200Z,24.53
2022-08-28T15:58:48.103Z,24.68
2022-08-28T16:01:14.520Z,24.44
2022-08-28T16:03:41.820Z,24.41
2022-08-28T16:06:15.130Z,24.38
2022-08-28T16:08:42.685Z,24.42
2022-08-28T16:11:09.432Z,24.48
2022-08-28T16:13:35.965Z,24.52
2022-08-28T16:16:02.542Z,24.42
2022-08-28T16:18:29.352Z,24.47
2022-08-28T16:20:55.777Z,24.34
2022-08-28T16:23:22.694Z,24.34
2022-08-28T16:25:49.231Z,24.56
2022-08-28T16:28:15.832Z,24.48
2022-08-28T16:30:43.901Z,24.56
2022-08-28T16:33:11.217Z,24.34
2022-08-28T16:35:49.447Z,24.24
2022-08-28T16:38:21.381Z,24.22
2022-08-28T16:40:48.338Z,24.15
2022-08-28T16:43:15.412Z,24.13
2022-08-28T16:45:46.165Z,24.08
2022-08-28T16:48:14.617Z,24.10
2022-08-28T16:50:42.654Z,23.97
2022-08-28T16:53:09.778Z,23.83
2022-08-28T16:55:38.271Z,23.72
2022-08-28T16:58:05.392Z,23.69
2022-08-28T17:00:31.816Z,23.63
2022-08-28T17:02:59.495Z,23.56
2022-08-28T17:05:27.026Z,23.50
2022-08-28T17:07:53.577Z,23.41
2022-08-28T17:10:22.402Z,23.35
2022-08-28T17:12:49.354Z,23.31
2022-08-28T17:15:16.353Z,23.27
2022-08-28T17:17:43.149Z,23.24
2022-08-28T17:20:11.546Z,23.22
2022-08-28T17:22:38.123Z,23.20
2022-08-28T17:25:13.822Z,23.11
2022-08-28T17:27:41.497Z,22.99
2022-08-28T17:30:11.895Z,22.91
2022-08-28T17:32:38.427Z,22.85
2022-08-28T17:35:05.844Z,22.77
2022-08-28T17:37:32.801Z,22.71
2022-08-28T17:39:59.424Z,22.63
2022-08-28T17:42:25.790Z,22.59
2022-08-28T17:44:52.472Z,22.44
2022-08-28T17:47:19.049Z,22.36
2022-08-28T17:49:53.877Z,22.28
2022-08-28T17:52:20.276Z,22.11
2022-08-28T17:54:46.775Z,22.14
2022-08-28T17:57:20.369Z,22.00
2022-08-28T17:59:46.814Z,21.82
2022-08-28T18:02:13.393Z,21.62
2022-08-28T18:04:39.880Z,21.49
2022-08-28T18:07:06.308Z,21.39
2022-08-28T18:09:32.803Z,21.30
2022-08-28T18:11:59.534Z,21.30
2022-08-28T18:14:27.407Z,21.25
2022-08-28T18:16:54.056Z,21.16
2022-08-28T18:19:20.792Z,21.05
2022-08-28T18:21:47.659Z,21.04
2022-08-28T18:24:14.096Z,20.93
2022-08-28T18:26:42.155Z,20.79
2022-08-28T18:29:08.808Z,20.69
2022-08-28T18:31:35.506Z,20.61
2022-08-28T18:34:02.313Z,20.54
2022-08-28T18:36:29.043Z,20.46
2022-08-28T18:38:55.622Z,20.41
2022-08-28T18:41:26.938Z,20.37
2022-08-28T18:44:10.061Z,20.32
2022-08-28T18:46:36.555Z,20.26
2022-08-28T18:49:04.083Z,20.21
2022-08-28T18:51:30.586Z,20.13
2022-08-28T18:53:59.417Z,20.08
2022-08-28T18:56:28.031Z,20.03
2022-08-28T18:58:57.990Z,19.99
2022-08-28T19:01:24.865Z,19.90
2022-08-28T19:03:51.835Z,19.72
2022-08-28T19:06:22.267Z,19.64
2022-08-28T19:08:48.613Z,19.55
2022-08-28T19:11:17.233Z,19.49
2022-08-28T19:13:44.029Z,19.43
2022-08-28T19:16:15.451Z,19.36
2022-08-28T19:18:42.215Z,19.30
2022-08-28T19:21:16.270Z,19.20
2022-08-28T19:23:55.608Z,19.10
2022-08-28T19:26:27.781Z,19.02
2022-08-28T19:28:55.248Z,18.93
2022-08-28T19:31:26.199Z,18.88
2022-08-28T19:33:53.470Z,18.84
2022-08-28T19:36:20.195Z,18.78
2022-08-28T19:38:47.066Z,18.68
2022-08-28T19:41:14.309Z,18.65
2022-08-28T19:43:42.912Z,18.62
2022-08-28T19:46:18.446Z,18.54
2022-08-28T19:48:51.083Z,18.49
2022-08-28T19:51:23.448Z,18.46
2022-08-28T19:53:57.286Z,18.52
2022-08-28T19:56:27.414Z,18.50
2022-08-28T19:58:55.487Z,18.39
2022-08-28T20:01:24.391Z,18.34
2022-08-28T20:03:51.080Z,18.36
2022-08-28T20:06:18.599Z,18.31
2022-08-28T20:08:45.087Z,18.26
2022-08-28T20:11:17.543Z,18.10
2022-08-28T20:13:44.108Z,18.12
2022-08-28T20:16:11.146Z,18.09
2022-08-28T20:18:37.569Z,17.99
2022-08-28T20:21:04.172Z,18.01
2022-08-28T20:23:30.719Z,17.95
2022-08-28T20:25:57.072Z,17.89
2022-08-28T20:28:23.569Z,17.80
2022-08-28T20:30:50.203Z,17.68
2022-08-28T20:33:16.606Z,17.54
2022-08-28T20:35:43.359Z,17.44
2022-08-28T20:38:09.747Z,17.41
2022-08-28T20:40:36.342Z,17.37
2022-08-28T20:43:03.104Z,17.38
2022-08-28T20:45:29.815Z,17.37
2022-08-28T20:47:56.542Z,17.35
2022-08-28T20:50:25.074Z,17.39
2022-08-28T20:52:51.662Z,17.36
2022-08-28T20:55:18.159Z,17.28
2022-08-28T20:57:45.849Z,17.20
2022-08-28T21:00:12.889Z,17.16
2022-08-28T21:02:39.897Z,17.11
2022-08-28T21:05:06.892Z,17.00
2022-08-28T21:07:36.336Z,16.99
2022-08-28T21:10:08.008Z,16.97
2022-08-28T21:12:39.203Z,16.93
2022-08-28T21:15:08.954Z,16.92
2022-08-28T21:17:36.107Z,16.93
2022-08-28T21:20:07.045Z,16.97
2022-08-28T21:22:35.297Z,16.97
2022-08-28T21:25:07.557Z,16.96
2022-08-28T21:27:34.669Z,16.93
2022-08-28T21:30:01.422Z,16.94
2022-08-28T21:32:29.372Z,16.96
2022-08-28T21:34:56.602Z,16.93
2022-08-28T21:37:23.778Z,16.91
2022-08-28T21:39:50.261Z,16.89
2022-08-28T21:42:17.001Z,16.80
2022-08-28T21:44:44.615Z,16.78
2022-08-28T21:47:19.752Z,16.75
2022-08-28T21:49:48.608Z,16.72
2022-08-28T21:52:15.063Z,16.76
2022-08-28T21:54:41.606Z,16.75
2022-08-28T21:57:08.256Z,16.73
2022-08-28T21:59:37.848Z,16.68
2022-08-28T22:02:04.749Z,16.66
2022-08-28T22:04:33.238Z,16.63
2022-08-28T22:07:01.036Z,16.63
2022-08-28T22:09:28.427Z,16.58
2022-08-28T22:11:54.881Z,16.58
2022-08-28T22:14:21.224Z,16.56
2022-08-28T22:16:47.893Z,16.55
2022-08-28T22:19:14.341Z,16.58
2022-08-28T22:21:41.102Z,16.62
2022-08-28T22:24:09.130Z,16.58
2022-08-28T22:26:35.980Z,16.54
2022-08-28T22:29:02.394Z,16.39
2022-08-28T22:31:28.928Z,16.34
2022-08-28T22:33:55.407Z,16.30
2022-08-28T22:36:22.287Z,16.26
2022-08-28T22:38:53.437Z,16.27
2022-08-28T22:41:20.714Z,16.33
2022-08-28T22:43:51.177Z,16.28
2022-08-28T22:46:19.476Z,16.17
2022-08-28T22:48:46.150Z,16.07
2022-08-28T22:51:15.098Z,16.07
2022-08-28T22:53:42.898Z,16.11
2022-08-28T22:56:11.218Z,16.14
2022-08-28T22:58:39.068Z,16.11
2022-08-28T23:01:09.675Z,16.07
2022-08-28T23:03:37.264Z,16.05
2022-08-28T23:06:03.929Z,15.98
2022-08-28T23:08:33.911Z,15.93
2022-08-28T23:11:01.041Z,15.86
2022-08-28T23:13:28.370Z,15.78
2022-08-28T23:15:54.742Z,15.65
2022-08-28T23:18:21.453Z,15.57
2022-08-28T23:20:50.535Z,15.53
2022-08-28T23:23:17.368Z,15.52
2022-08-28T23:25:46.146Z,15.48
2022-08-28T23:28:13.355Z,15.42
2022-08-28T23:30:40.295Z,15.39
2022-08-28T23:33:10.581Z,15.42
2022-08-28T23:35:38.594Z,15.50
2022-08-28T23:38:05.027Z,15.51
2022-08-28T23:40:32.813Z,15.51
2022-08-28T23:43:01.618Z,15.51
2022-08-28T23:45:28.609Z,15.47
2022-08-28T23:47:55.127Z,15.56
2022-08-28T23:50:23.130Z,15.59
2022-08-28T23:52:50.280Z,15.54
2022-08-28T23:55:18.945Z,15.46
2022-08-28T23:57:45.797Z,15.45
